sensor_id;sensor_type;location;lat;lon;timestamp;P1;durP1;ratioP1;P2;durP2;ratioP2
75542;SDS011;64129;53.508;10.476;2022-10-16T00:00:31;7.38;;;5.75;;
75542;SDS011;64129;53.508;10.476;2022-10-16T00:02:56;6.07;;;5.22;;
75542;SDS011;64129;53.508;10.476;2022-10-16T00:05:21;8.00;;;5.38;;
75542;SDS011;64129;53.508;10.476;2022-10-16T00:07:47;7.07;;;5.50;;
75542;SDS011;64129;53.508;10.476;2022-10-16T00:10:12;7.88;;;4.97;;
75542;SDS011;64129;53.508;10.476;2022-10-16T00:12:38;6.63;;;5.50;;
75542;SDS011;64129;53.508;10.476;2022-10-16T00:15:03;8.27;;;5.40;;
75542;SDS011;64129;53.508;10.476;2022-10-16T00:17:29;6.95;;;5.05;;
75542;SDS011;64129;53.508;10.476;2022-10-16T00:19:54;5.57;;;4.85;;
75542;SDS011;64129;53.508;10.476;2022-10-16T00:22:20;6.95;;;5.28;;
75542;SDS011;64129;53.508;10.476;2022-10-16T00:24:45;5.75;;;3.95;;
75542;SDS011;64129;53.508;10.476;2022-10-16T00:27:10;5.10;;;4.18;;
75542;SDS011;64129;53.508;10.476;2022-10-16T00:29:36;11.30;;;4.95;;
75542;SDS011;64129;53.508;10.476;2022-10-16T00:32:01;5.97;;;4.35;;
75542;SDS011;64129;53.508;10.476;2022-10-16T00:34:27;6.85;;;4.55;;
75542;SDS011;64129;53.508;10.476;2022-10-16T00:36:52;6.22;;;4.45;;
75542;SDS011;64129;53.508;10.476;2022-10-16T00:39:17;6.28;;;4.43;;
75542;SDS011;64129;53.508;10.476;2022-10-16T00:41:43;7.50;;;4.00;;
75542;SDS011;64129;53.508;10.476;2022-10-16T00:47:53;6.75;;;4.50;;
75542;SDS011;64129;53.508;10.476;2022-10-16T00:50:19;5.40;;;4.55;;
75542;SDS011;64129;53.508;10.476;2022-10-16T00:52:51;5.57;;;4.07;;
75542;SDS011;64129;53.508;10.476;2022-10-16T00:55:17;5.28;;;4.78;;
75542;SDS011;64129;53.508;10.476;2022-10-16T00:57:44;7.18;;;4.90;;
75542;SDS011;64129;53.508;10.476;2022-10-16T01:00:11;5.88;;;4.40;;
75542;SDS011;64129;53.508;10.476;2022-10-16T01:02:38;7.45;;;4.95;;
75542;SDS011;64129;53.508;10.476;2022-10-16T01:05:03;6.18;;;4.43;;
75542;SDS011;64129;53.508;10.476;2022-10-16T01:13:06;7.63;;;4.28;;
75542;SDS011;64129;53.508;10.476;2022-10-16T01:15:36;5.28;;;4.47;;
75542;SDS011;64129;53.508;10.476;2022-10-16T01:18:18;5.80;;;4.53;;
75542;SDS011;64129;53.508;10.476;2022-10-16T01:20:57;5.55;;;4.28;;
75542;SDS011;64129;53.508;10.476;2022-10-16T01:23:34;7.38;;;4.95;;
75542;SDS011;64129;53.508;10.476;2022-10-16T01:28:58;5.57;;;4.32;;
75542;SDS011;64129;53.508;10.476;2022-10-16T01:31:46;5.03;;;4.22;;
75542;SDS011;64129;53.508;10.476;2022-10-16T01:34:19;6.07;;;4.78;;
75542;SDS011;64129;53.508;10.476;2022-10-16T01:36:51;5.15;;;4.18;;
75542;SDS011;64129;53.508;10.476;2022-10-16T01:39:22;5.00;;;3.22;;
75542;SDS011;64129;53.508;10.476;2022-10-16T01:41:54;4.65;;;3.42;;
75542;SDS011;64129;53.508;10.476;2022-10-16T01:44:28;6.07;;;3.63;;
75542;SDS011;64129;53.508;10.476;2022-10-16T01:46:56;8.20;;;3.92;;
75542;SDS011;64129;53.508;10.476;2022-10-16T01:49:23;5.43;;;3.80;;
75542;SDS011;64129;53.508;10.476;2022-10-16T01:51:52;4.35;;;3.20;;
75542;SDS011;64129;53.508;10.476;2022-10-16T01:54:23;3.80;;;2.78;;
75542;SDS011;64129;53.508;10.476;2022-10-16T01:56:52;3.42;;;2.65;;
75542;SDS011;64129;53.508;10.476;2022-10-16T01:59:20;4.80;;;3.00;;
75542;SDS011;64129;53.508;10.476;2022-10-16T02:01:50;5.40;;;2.53;;
75542;SDS011;64129;53.508;10.476;2022-10-16T02:04:24;5.28;;;3.13;;
75542;SDS011;64129;53.508;10.476;2022-10-16T02:06:54;2.97;;;2.58;;
75542;SDS011;64129;53.508;10.476;2022-10-16T02:09:20;3.45;;;2.50;;
75542;SDS011;64129;53.508;10.476;2022-10-16T02:11:46;3.90;;;2.05;;
75542;SDS011;64129;53.508;10.476;2022-10-16T02:14:11;4.80;;;2.33;;
75542;SDS011;64129;53.508;10.476;2022-10-16T02:16:38;3.03;;;2.20;;
75542;SDS011;64129;53.508;10.476;2022-10-16T02:19:06;3.55;;;2.13;;
75542;SDS011;64129;53.508;10.476;2022-10-16T02:22:05;4.43;;;2.28;;
75542;SDS011;64129;53.508;10.476;2022-10-16T02:24:30;3.58;;;2.17;;
75542;SDS011;64129;53.508;10.476;2022-10-16T02:30:07;5.60;;;1.88;;
75542;SDS011;64129;53.508;10.476;2022-10-16T02:32:57;2.00;;;1.80;;
75542;SDS011;64129;53.508;10.476;2022-10-16T02:35:24;3.17;;;2.13;;
75542;SDS011;64129;53.508;10.476;2022-10-16T02:37:52;4.82;;;1.88;;
75542;SDS011;64129;53.508;10.476;2022-10-16T02:40:19;3.35;;;1.85;;
75542;SDS011;64129;53.508;10.476;2022-10-16T02:42:49;3.80;;;1.83;;
75542;SDS011;64129;53.508;10.476;2022-10-16T02:45:16;4.78;;;1.70;;
75542;SDS011;64129;53.508;10.476;2022-10-16T02:47:41;2.10;;;1.98;;
75542;SDS011;64129;53.508;10.476;2022-10-16T02:50:07;2.80;;;1.40;;
75542;SDS011;64129;53.508;10.476;2022-10-16T02:52:32;3.08;;;1.60;;
75542;SDS011;64129;53.508;10.476;2022-10-16T02:54:58;3.13;;;1.75;;
75542;SDS011;64129;53.508;10.476;2022-10-16T02:57:23;3.78;;;1.92;;
75542;SDS011;64129;53.508;10.476;2022-10-16T02:59:49;1.92;;;1.40;;
75542;SDS011;64129;53.508;10.476;2022-10-16T03:02:14;3.78;;;1.50;;
75542;SDS011;64129;53.508;10.476;2022-10-16T03:04:39;3.63;;;1.70;;
75542;SDS011;64129;53.508;10.476;2022-10-16T03:07:05;7.80;;;1.83;;
75542;SDS011;64129;53.508;10.476;2022-10-16T03:09:30;3.03;;;1.60;;
75542;SDS011;64129;53.508;10.476;2022-10-16T03:11:56;3.15;;;1.33;;
75542;SDS011;64129;53.508;10.476;2022-10-16T03:14:21;2.50;;;1.60;;
75542;SDS011;64129;53.508;10.476;2022-10-16T03:16:46;1.75;;;1.58;;
75542;SDS011;64129;53.508;10.476;2022-10-16T03:19:12;2.55;;;1.42;;
75542;SDS011;64129;53.508;10.476;2022-10-16T03:21:37;3.33;;;1.33;;
75542;SDS011;64129;53.508;10.476;2022-10-16T03:24:03;2.13;;;1.50;;
75542;SDS011;64129;53.508;10.476;2022-10-16T03:26:28;4.20;;;1.50;;
75542;SDS011;64129;53.508;10.476;2022-10-16T03:28:53;5.70;;;1.75;;
75542;SDS011;64129;53.508;10.476;2022-10-16T03:31:19;3.03;;;1.33;;
75542;SDS011;64129;53.508;10.476;2022-10-16T03:33:44;2.72;;;1.20;;
75542;SDS011;64129;53.508;10.476;2022-10-16T03:36:09;3.38;;;1.30;;
75542;SDS011;64129;53.508;10.476;2022-10-16T03:38:35;1.40;;;1.27;;
75542;SDS011;64129;53.508;10.476;2022-10-16T03:41:00;3.67;;;1.02;;
75542;SDS011;64129;53.508;10.476;2022-10-16T03:43:26;3.05;;;1.30;;
75542;SDS011;64129;53.508;10.476;2022-10-16T03:45:51;2.78;;;1.30;;
75542;SDS011;64129;53.508;10.476;2022-10-16T03:48:17;5.15;;;1.20;;
75542;SDS011;64129;53.508;10.476;2022-10-16T03:50:43;3.78;;;1.58;;
75542;SDS011;64129;53.508;10.476;2022-10-16T03:53:08;4.28;;;1.70;;
75542;SDS011;64129;53.508;10.476;2022-10-16T03:55:34;1.65;;;1.08;;
75542;SDS011;64129;53.508;10.476;2022-10-16T03:57:59;2.65;;;1.35;;
75542;SDS011;64129;53.508;10.476;2022-10-16T04:00:25;4.55;;;1.50;;
75542;SDS011;64129;53.508;10.476;2022-10-16T04:02:50;1.58;;;1.23;;
75542;SDS011;64129;53.508;10.476;2022-10-16T04:05:15;3.15;;;1.65;;
75542;SDS011;64129;53.508;10.476;2022-10-16T04:07:41;5.50;;;1.30;;
75542;SDS011;64129;53.508;10.476;2022-10-16T04:10:06;4.25;;;1.10;;
75542;SDS011;64129;53.508;10.476;2022-10-16T04:12:32;2.78;;;1.40;;
75542;SDS011;64129;53.508;10.476;2022-10-16T04:14:57;3.90;;;1.20;;
75542;SDS011;64129;53.508;10.476;2022-10-16T04:17:23;3.88;;;1.42;;
75542;SDS011;64129;53.508;10.476;2022-10-16T04:19:48;1.90;;;1.40;;
75542;SDS011;64129;53.508;10.476;2022-10-16T04:22:13;2.28;;;1.38;;
75542;SDS011;64129;53.508;10.476;2022-10-16T04:24:39;1.83;;;1.35;;
75542;SDS011;64129;53.508;10.476;2022-10-16T04:27:04;2.47;;;1.25;;
75542;SDS011;64129;53.508;10.476;2022-10-16T04:29:29;2.58;;;1.25;;
75542;SDS011;64129;53.508;10.476;2022-10-16T04:31:55;3.40;;;1.35;;
75542;SDS011;64129;53.508;10.476;2022-10-16T04:34:20;2.63;;;1.10;;
75542;SDS011;64129;53.508;10.476;2022-10-16T04:36:49;2.20;;;1.35;;
75542;SDS011;64129;53.508;10.476;2022-10-16T04:39:14;2.60;;;1.38;;
75542;SDS011;64129;53.508;10.476;2022-10-16T04:41:40;4.07;;;1.05;;
75542;SDS011;64129;53.508;10.476;2022-10-16T04:44:06;3.85;;;1.23;;
75542;SDS011;64129;53.508;10.476;2022-10-16T04:46:31;3.03;;;1.02;;
75542;SDS011;64129;53.508;10.476;2022-10-16T04:48:56;2.08;;;1.23;;
75542;SDS011;64129;53.508;10.476;2022-10-16T04:51:22;2.25;;;1.30;;
75542;SDS011;64129;53.508;10.476;2022-10-16T04:53:47;2.47;;;1.38;;
75542;SDS011;64129;53.508;10.476;2022-10-16T04:56:13;3.58;;;1.08;;
75542;SDS011;64129;53.508;10.476;2022-10-16T04:58:39;3.03;;;1.40;;
75542;SDS011;64129;53.508;10.476;2022-10-16T05:01:05;2.75;;;1.30;;
75542;SDS011;64129;53.508;10.476;2022-10-16T05:03:30;4.13;;;1.38;;
75542;SDS011;64129;53.508;10.476;2022-10-16T05:05:55;2.08;;;1.08;;
75542;SDS011;64129;53.508;10.476;2022-10-16T05:08:21;2.75;;;1.58;;
75542;SDS011;64129;53.508;10.476;2022-10-16T05:10:47;3.40;;;1.25;;
75542;SDS011;64129;53.508;10.476;2022-10-16T05:13:12;4.75;;;1.45;;
75542;SDS011;64129;53.508;10.476;2022-10-16T05:15:37;3.33;;;1.45;;
75542;SDS011;64129;53.508;10.476;2022-10-16T05:18:03;1.98;;;1.33;;
75542;SDS011;64129;53.508;10.476;2022-10-16T05:20:28;2.50;;;1.30;;
75542;SDS011;64129;53.508;10.476;2022-10-16T05:22:54;2.75;;;1.50;;
75542;SDS011;64129;53.508;10.476;2022-10-16T05:25:19;3.17;;;1.92;;
75542;SDS011;64129;53.508;10.476;2022-10-16T05:27:48;2.42;;;1.60;;
75542;SDS011;64129;53.508;10.476;2022-10-16T05:30:14;3.60;;;1.45;;
75542;SDS011;64129;53.508;10.476;2022-10-16T05:32:39;4.38;;;1.52;;
75542;SDS011;64129;53.508;10.476;2022-10-16T05:35:05;1.80;;;1.65;;
75542;SDS011;64129;53.508;10.476;2022-10-16T05:37:30;4.22;;;1.63;;
75542;SDS011;64129;53.508;10.476;2022-10-16T05:39:56;3.65;;;1.60;;
75542;SDS011;64129;53.508;10.476;2022-10-16T05:42:21;4.30;;;1.60;;
75542;SDS011;64129;53.508;10.476;2022-10-16T05:44:46;2.15;;;1.20;;
75542;SDS011;64129;53.508;10.476;2022-10-16T05:47:12;4.93;;;1.60;;
75542;SDS011;64129;53.508;10.476;2022-10-16T05:49:39;2.40;;;1.58;;
75542;SDS011;64129;53.508;10.476;2022-10-16T05:52:04;4.30;;;1.60;;
75542;SDS011;64129;53.508;10.476;2022-10-16T05:54:30;3.38;;;1.90;;
75542;SDS011;64129;53.508;10.476;2022-10-16T05:56:55;5.20;;;1.88;;
75542;SDS011;64129;53.508;10.476;2022-10-16T05:59:20;4.20;;;1.70;;
75542;SDS011;64129;53.508;10.476;2022-10-16T06:01:46;3.08;;;1.92;;
75542;SDS011;64129;53.508;10.476;2022-10-16T06:04:11;2.25;;;1.70;;
75542;SDS011;64129;53.508;10.476;2022-10-16T06:06:37;3.30;;;1.70;;
75542;SDS011;64129;53.508;10.476;2022-10-16T06:09:02;2.28;;;1.48;;
75542;SDS011;64129;53.508;10.476;2022-10-16T06:11:30;4.05;;;1.73;;
75542;SDS011;64129;53.508;10.476;2022-10-16T06:13:57;4.07;;;1.70;;
75542;SDS011;64129;53.508;10.476;2022-10-16T06:16:27;3.33;;;1.42;;
75542;SDS011;64129;53.508;10.476;2022-10-16T06:18:52;4.43;;;2.00;;
75542;SDS011;64129;53.508;10.476;2022-10-16T06:21:20;5.97;;;1.65;;
75542;SDS011;64129;53.508;10.476;2022-10-16T06:23:46;3.45;;;1.77;;
75542;SDS011;64129;53.508;10.476;2022-10-16T06:26:13;5.30;;;1.70;;
75542;SDS011;64129;53.508;10.476;2022-10-16T06:31:06;3.40;;;1.75;;
75542;SDS011;64129;53.508;10.476;2022-10-16T06:36:03;4.70;;;1.88;;
75542;SDS011;64129;53.508;10.476;2022-10-16T06:38:36;3.72;;;1.63;;
75542;SDS011;64129;53.508;10.476;2022-10-16T06:41:02;2.55;;;1.75;;
75542;SDS011;64129;53.508;10.476;2022-10-16T06:43:28;6.70;;;1.58;;
75542;SDS011;64129;53.508;10.476;2022-10-16T06:45:58;2.45;;;1.70;;
75542;SDS011;64129;53.508;10.476;2022-10-16T06:48:25;5.78;;;1.90;;
75542;SDS011;64129;53.508;10.476;2022-10-16T06:51:05;4.63;;;2.30;;
75542;SDS011;64129;53.508;10.476;2022-10-16T06:53:34;4.70;;;1.77;;
75542;SDS011;64129;53.508;10.476;2022-10-16T06:56:34;5.40;;;2.70;;
75542;SDS011;64129;53.508;10.476;2022-10-16T06:58:54;3.65;;;2.25;;
75542;SDS011;64129;53.508;10.476;2022-10-16T07:01:20;3.20;;;2.33;;
75542;SDS011;64129;53.508;10.476;2022-10-16T07:03:48;7.28;;;2.42;;
75542;SDS011;64129;53.508;10.476;2022-10-16T07:06:15;5.07;;;2.15;;
75542;SDS011;64129;53.508;10.476;2022-10-16T07:08:43;4.63;;;2.13;;
75542;SDS011;64129;53.508;10.476;2022-10-16T07:11:10;4.18;;;2.00;;
75542;SDS011;64129;53.508;10.476;2022-10-16T07:13:38;4.07;;;2.05;;
75542;SDS011;64129;53.508;10.476;2022-10-16T07:16:06;2.67;;;2.33;;
75542;SDS011;64129;53.508;10.476;2022-10-16T07:18:33;3.33;;;2.40;;
75542;SDS011;64129;53.508;10.476;2022-10-16T07:21:05;3.72;;;2.50;;
75542;SDS011;64129;53.508;10.476;2022-10-16T07:23:32;5.40;;;2.53;;
75542;SDS011;64129;53.508;10.476;2022-10-16T07:25:57;5.75;;;2.53;;
75542;SDS011;64129;53.508;10.476;2022-10-16T07:28:23;4.43;;;2.05;;
75542;SDS011;64129;53.508;10.476;2022-10-16T07:30:48;3.67;;;1.73;;
75542;SDS011;64129;53.508;10.476;2022-10-16T07:33:13;5.38;;;2.38;;
75542;SDS011;64129;53.508;10.476;2022-10-16T07:35:47;6.63;;;2.15;;
75542;SDS011;64129;53.508;10.476;2022-10-16T07:38:13;3.35;;;1.88;;
75542;SDS011;64129;53.508;10.476;2022-10-16T07:40:39;5.75;;;1.88;;
75542;SDS011;64129;53.508;10.476;2022-10-16T07:43:04;3.15;;;2.00;;
75542;SDS011;64129;53.508;10.476;2022-10-16T07:45:30;4.00;;;2.03;;
75542;SDS011;64129;53.508;10.476;2022-10-16T07:47:55;4.40;;;2.05;;
75542;SDS011;64129;53.508;10.476;2022-10-16T07:50:21;4.38;;;1.85;;
75542;SDS011;64129;53.508;10.476;2022-10-16T07:52:46;5.18;;;1.90;;
75542;SDS011;64129;53.508;10.476;2022-10-16T07:55:11;2.63;;;1.67;;
75542;SDS011;64129;53.508;10.476;2022-10-16T07:57:37;3.80;;;1.95;;
75542;SDS011;64129;53.508;10.476;2022-10-16T08:00:02;2.20;;;1.90;;
75542;SDS011;64129;53.508;10.476;2022-10-16T08:02:37;3.17;;;1.65;;
75542;SDS011;64129;53.508;10.476;2022-10-16T08:05:02;3.58;;;2.05;;
75542;SDS011;64129;53.508;10.476;2022-10-16T08:07:28;4.35;;;2.10;;
75542;SDS011;64129;53.508;10.476;2022-10-16T08:09:53;2.88;;;1.48;;
75542;SDS011;64129;53.508;10.476;2022-10-16T08:12:18;5.03;;;2.05;;
75542;SDS011;64129;53.508;10.476;2022-10-16T08:14:44;2.85;;;1.70;;
75542;SDS011;64129;53.508;10.476;2022-10-16T08:17:09;2.88;;;1.70;;
75542;SDS011;64129;53.508;10.476;2022-10-16T08:19:34;2.25;;;1.77;;
75542;SDS011;64129;53.508;10.476;2022-10-16T08:22:00;2.53;;;1.75;;
75542;SDS011;64129;53.508;10.476;2022-10-16T08:24:26;3.80;;;1.77;;
75542;SDS011;64129;53.508;10.476;2022-10-16T08:26:53;4.32;;;1.80;;
75542;SDS011;64129;53.508;10.476;2022-10-16T08:29:19;3.72;;;1.63;;
75542;SDS011;64129;53.508;10.476;2022-10-16T08:31:44;3.78;;;2.00;;
75542;SDS011;64129;53.508;10.476;2022-10-16T08:34:10;2.70;;;1.63;;
75542;SDS011;64129;53.508;10.476;2022-10-16T08:36:35;3.28;;;1.90;;
75542;SDS011;64129;53.508;10.476;2022-10-16T08:39:00;1.75;;;1.55;;
75542;SDS011;64129;53.508;10.476;2022-10-16T08:49:40;3.97;;;1.40;;
75542;SDS011;64129;53.508;10.476;2022-10-16T08:52:12;2.63;;;1.52;;
75542;SDS011;64129;53.508;10.476;2022-10-16T08:54:41;3.53;;;1.20;;
75542;SDS011;64129;53.508;10.476;2022-10-16T08:57:14;3.55;;;1.58;;
75542;SDS011;64129;53.508;10.476;2022-10-16T08:59:45;3.17;;;1.25;;
75542;SDS011;64129;53.508;10.476;2022-10-16T09:02:18;3.88;;;1.40;;
75542;SDS011;64129;53.508;10.476;2022-10-16T09:07:49;2.13;;;1.20;;
75542;SDS011;64129;53.508;10.476;2022-10-16T09:10:34;2.78;;;1.08;;
75542;SDS011;64129;53.508;10.476;2022-10-16T09:13:14;1.90;;;1.23;;
75542;SDS011;64129;53.508;10.476;2022-10-16T09:15:47;2.30;;;1.23;;
75542;SDS011;64129;53.508;10.476;2022-10-16T09:21:14;2.75;;;0.95;;
75542;SDS011;64129;53.508;10.476;2022-10-16T09:23:43;1.75;;;0.95;;
75542;SDS011;64129;53.508;10.476;2022-10-16T09:26:09;2.97;;;1.00;;
75542;SDS011;64129;53.508;10.476;2022-10-16T09:28:37;3.33;;;1.55;;
75542;SDS011;64129;53.508;10.476;2022-10-16T09:31:02;2.92;;;1.75;;
75542;SDS011;64129;53.508;10.476;2022-10-16T09:33:37;3.47;;;1.23;;
75542;SDS011;64129;53.508;10.476;2022-10-16T09:36:06;1.52;;;1.00;;
75542;SDS011;64129;53.508;10.476;2022-10-16T09:38:35;2.78;;;0.90;;
75542;SDS011;64129;53.508;10.476;2022-10-16T09:41:02;1.55;;;0.93;;
75542;SDS011;64129;53.508;10.476;2022-10-16T09:43:39;3.65;;;1.02;;
75542;SDS011;64129;53.508;10.476;2022-10-16T09:48:57;1.13;;;1.02;;
75542;SDS011;64129;53.508;10.476;2022-10-16T09:51:25;1.80;;;0.80;;
75542;SDS011;64129;53.508;10.476;2022-10-16T09:53:57;2.20;;;1.40;;
75542;SDS011;64129;53.508;10.476;2022-10-16T09:56:26;1.60;;;0.70;;
75542;SDS011;64129;53.508;10.476;2022-10-16T09:58:54;1.08;;;0.88;;
75542;SDS011;64129;53.508;10.476;2022-10-16T10:01:22;4.40;;;1.02;;
75542;SDS011;64129;53.508;10.476;2022-10-16T10:03:55;1.73;;;0.57;;
75542;SDS011;64129;53.508;10.476;2022-10-16T10:06:30;3.05;;;0.77;;
75542;SDS011;64129;53.508;10.476;2022-10-16T10:09:16;1.35;;;0.70;;
75542;SDS011;64129;53.508;10.476;2022-10-16T10:16:51;3.90;;;0.80;;
75542;SDS011;64129;53.508;10.476;2022-10-16T10:19:26;1.45;;;0.52;;
75542;SDS011;64129;53.508;10.476;2022-10-16T10:21:52;1.05;;;0.60;;
75542;SDS011;64129;53.508;10.476;2022-10-16T10:24:20;3.33;;;0.73;;
75542;SDS011;64129;53.508;10.476;2022-10-16T10:30:18;2.50;;;0.70;;
75542;SDS011;64129;53.508;10.476;2022-10-16T10:32:35;1.35;;;0.50;;
75542;SDS011;64129;53.508;10.476;2022-10-16T10:37:47;3.28;;;0.63;;
75542;SDS011;64129;53.508;10.476;2022-10-16T10:40:29;1.55;;;0.43;;
75542;SDS011;64129;53.508;10.476;2022-10-16T10:45:52;0.55;;;0.40;;
75542;SDS011;64129;53.508;10.476;2022-10-16T10:48:27;2.58;;;0.50;;
75542;SDS011;64129;53.508;10.476;2022-10-16T10:50:59;1.60;;;0.60;;
75542;SDS011;64129;53.508;10.476;2022-10-16T10:58:50;1.65;;;0.55;;
75542;SDS011;64129;53.508;10.476;2022-10-16T11:01:36;2.05;;;0.55;;
75542;SDS011;64129;53.508;10.476;2022-10-16T11:04:18;2.00;;;0.70;;
75542;SDS011;64129;53.508;10.476;2022-10-16T11:06:50;2.17;;;0.60;;
75542;SDS011;64129;53.508;10.476;2022-10-16T11:09:22;1.63;;;0.50;;
75542;SDS011;64129;53.508;10.476;2022-10-16T11:11:52;1.08;;;0.45;;
75542;SDS011;64129;53.508;10.476;2022-10-16T11:14:26;2.80;;;0.45;;
75542;SDS011;64129;53.508;10.476;2022-10-16T11:16:58;2.70;;;0.60;;
75542;SDS011;64129;53.508;10.476;2022-10-16T11:19:34;2.35;;;0.50;;
75542;SDS011;64129;53.508;10.476;2022-10-16T11:24:55;1.58;;;0.40;;
75542;SDS011;64129;53.508;10.476;2022-10-16T11:27:35;2.95;;;0.80;;
75542;SDS011;64129;53.508;10.476;2022-10-16T11:30:05;1.85;;;0.43;;
75542;SDS011;64129;53.508;10.476;2022-10-16T11:32:56;3.03;;;0.55;;
75542;SDS011;64129;53.508;10.476;2022-10-16T11:35:48;1.40;;;0.43;;
75542;SDS011;64129;53.508;10.476;2022-10-16T11:41:02;1.65;;;0.43;;
75542;SDS011;64129;53.508;10.476;2022-10-16T11:43:43;2.28;;;0.63;;
75542;SDS011;64129;53.508;10.476;2022-10-16T11:46:17;2.92;;;0.60;;
75542;SDS011;64129;53.508;10.476;2022-10-16T11:51:53;1.92;;;0.57;;
75542;SDS011;64129;53.508;10.476;2022-10-16T11:54:40;1.00;;;0.50;;
75542;SDS011;64129;53.508;10.476;2022-10-16T11:57:17;3.40;;;0.75;;
75542;SDS011;64129;53.508;10.476;2022-10-16T11:59:50;1.90;;;0.57;;
75542;SDS011;64129;53.508;10.476;2022-10-16T12:02:40;3.00;;;0.50;;
75542;SDS011;64129;53.508;10.476;2022-10-16T12:05:17;2.30;;;0.80;;
75542;SDS011;64129;53.508;10.476;2022-10-16T12:07:57;1.42;;;0.35;;
75542;SDS011;64129;53.508;10.476;2022-10-16T12:10:47;2.40;;;0.32;;
75542;SDS011;64129;53.508;10.476;2022-10-16T12:13:32;1.33;;;0.52;;
75542;SDS011;64129;53.508;10.476;2022-10-16T12:18:37;2.13;;;0.52;;
75542;SDS011;64129;53.508;10.476;2022-10-16T12:21:07;1.70;;;0.45;;
75542;SDS011;64129;53.508;10.476;2022-10-16T12:23:37;1.13;;;0.50;;
75542;SDS011;64129;53.508;10.476;2022-10-16T12:26:11;5.38;;;0.50;;
75542;SDS011;64129;53.508;10.476;2022-10-16T12:28:37;4.00;;;0.57;;
75542;SDS011;64129;53.508;10.476;2022-10-16T12:31:07;2.67;;;0.70;;
75542;SDS011;64129;53.508;10.476;2022-10-16T12:33:35;1.65;;;0.50;;
75542;SDS011;64129;53.508;10.476;2022-10-16T12:36:48;1.73;;;0.40;;
75542;SDS011;64129;53.508;10.476;2022-10-16T12:38:56;2.85;;;0.60;;
75542;SDS011;64129;53.508;10.476;2022-10-16T12:41:25;3.47;;;0.70;;
75542;SDS011;64129;53.508;10.476;2022-10-16T12:43:53;2.03;;;0.75;;
75542;SDS011;64129;53.508;10.476;2022-10-16T12:48:44;4.03;;;0.90;;
75542;SDS011;64129;53.508;10.476;2022-10-16T12:53:47;1.13;;;0.60;;
75542;SDS011;64129;53.508;10.476;2022-10-16T12:56:30;2.00;;;0.40;;
75542;SDS011;64129;53.508;10.476;2022-10-16T13:07:30;1.77;;;0.50;;
75542;SDS011;64129;53.508;10.476;2022-10-16T13:10:11;1.45;;;0.40;;
75542;SDS011;64129;53.508;10.476;2022-10-16T13:15:22;2.55;;;0.52;;
75542;SDS011;64129;53.508;10.476;2022-10-16T13:24:36;3.08;;;0.57;;
75542;SDS011;64129;53.508;10.476;2022-10-16T13:29:14;2.17;;;0.40;;
75542;SDS011;64129;53.508;10.476;2022-10-16T13:31:40;1.98;;;0.43;;
75542;SDS011;64129;53.508;10.476;2022-10-16T13:34:19;2.97;;;0.40;;
75542;SDS011;64129;53.508;10.476;2022-10-16T13:36:50;2.22;;;0.55;;
75542;SDS011;64129;53.508;10.476;2022-10-16T13:39:24;4.57;;;0.82;;
75542;SDS011;64129;53.508;10.476;2022-10-16T13:42:04;2.15;;;0.57;;
75542;SDS011;64129;53.508;10.476;2022-10-16T13:44:39;2.90;;;0.60;;
75542;SDS011;64129;53.508;10.476;2022-10-16T13:47:15;2.20;;;0.60;;
75542;SDS011;64129;53.508;10.476;2022-10-16T13:49:42;3.08;;;0.52;;
75542;SDS011;64129;53.508;10.476;2022-10-16T13:52:18;1.45;;;0.68;;
75542;SDS011;64129;53.508;10.476;2022-10-16T13:54:45;2.78;;;0.47;;
75542;SDS011;64129;53.508;10.476;2022-10-16T13:57:12;2.03;;;0.57;;
75542;SDS011;64129;53.508;10.476;2022-10-16T13:59:39;2.42;;;0.60;;
75542;SDS011;64129;53.508;10.476;2022-10-16T14:02:08;3.58;;;0.65;;
75542;SDS011;64129;53.508;10.476;2022-10-16T14:04:42;3.00;;;0.70;;
75542;SDS011;64129;53.508;10.476;2022-10-16T14:07:13;2.75;;;0.60;;
75542;SDS011;64129;53.508;10.476;2022-10-16T14:14:34;1.27;;;0.50;;
75542;SDS011;64129;53.508;10.476;2022-10-16T14:17:05;1.25;;;0.57;;
75542;SDS011;64129;53.508;10.476;2022-10-16T14:19:30;0.85;;;0.60;;
75542;SDS011;64129;53.508;10.476;2022-10-16T14:21:57;2.30;;;0.70;;
75542;SDS011;64129;53.508;10.476;2022-10-16T14:26:52;2.97;;;0.60;;
75542;SDS011;64129;53.508;10.476;2022-10-16T14:34:31;2.67;;;0.60;;
75542;SDS011;64129;53.508;10.476;2022-10-16T14:36:59;2.03;;;0.68;;
75542;SDS011;64129;53.508;10.476;2022-10-16T14:39:31;4.03;;;0.63;;
75542;SDS011;64129;53.508;10.476;2022-10-16T14:41:57;1.45;;;0.68;;
75542;SDS011;64129;53.508;10.476;2022-10-16T14:44:26;4.13;;;0.88;;
75542;SDS011;64129;53.508;10.476;2022-10-16T14:46:54;1.55;;;0.60;;
75542;SDS011;64129;53.508;10.476;2022-10-16T14:49:20;3.20;;;0.93;;
75542;SDS011;64129;53.508;10.476;2022-10-16T14:51:48;3.08;;;0.80;;
75542;SDS011;64129;53.508;10.476;2022-10-16T14:54:17;2.97;;;0.68;;
75542;SDS011;64129;53.508;10.476;2022-10-16T14:56:45;2.83;;;0.57;;
75542;SDS011;64129;53.508;10.476;2022-10-16T14:59:13;3.65;;;0.50;;
75542;SDS011;64129;53.508;10.476;2022-10-16T15:01:45;2.92;;;0.90;;
75542;SDS011;64129;53.508;10.476;2022-10-16T15:04:12;2.50;;;0.65;;
75542;SDS011;64129;53.508;10.476;2022-10-16T15:06:38;3.05;;;1.25;;
75542;SDS011;64129;53.508;10.476;2022-10-16T15:09:04;4.40;;;1.30;;
75542;SDS011;64129;53.508;10.476;2022-10-16T15:11:29;3.20;;;1.10;;
75542;SDS011;64129;53.508;10.476;2022-10-16T15:13:57;2.17;;;0.68;;
75542;SDS011;64129;53.508;10.476;2022-10-16T15:16:22;1.85;;;0.63;;
75542;SDS011;64129;53.508;10.476;2022-10-16T15:18:48;3.38;;;0.57;;
75542;SDS011;64129;53.508;10.476;2022-10-16T15:21:18;1.65;;;0.57;;
75542;SDS011;64129;53.508;10.476;2022-10-16T15:23:49;3.95;;;0.70;;
75542;SDS011;64129;53.508;10.476;2022-10-16T15:26:15;2.72;;;0.80;;
75542;SDS011;64129;53.508;10.476;2022-10-16T15:28:41;2.63;;;0.47;;
75542;SDS011;64129;53.508;10.476;2022-10-16T15:31:06;4.25;;;0.65;;
75542;SDS011;64129;53.508;10.476;2022-10-16T15:33:31;3.28;;;0.80;;
75542;SDS011;64129;53.508;10.476;2022-10-16T15:38:25;3.58;;;0.80;;
75542;SDS011;64129;53.508;10.476;2022-10-16T15:40:52;2.10;;;0.70;;
75542;SDS011;64129;53.508;10.476;2022-10-16T15:43:17;4.47;;;0.63;;
75542;SDS011;64129;53.508;10.476;2022-10-16T15:45:44;2.75;;;0.73;;
75542;SDS011;64129;53.508;10.476;2022-10-16T15:48:14;2.80;;;0.75;;
75542;SDS011;64129;53.508;10.476;2022-10-16T15:50:39;3.05;;;1.05;;
75542;SDS011;64129;53.508;10.476;2022-10-16T15:53:05;3.30;;;0.70;;
75542;SDS011;64129;53.508;10.476;2022-10-16T15:55:30;4.80;;;1.02;;
75542;SDS011;64129;53.508;10.476;2022-10-16T15:57:56;2.28;;;0.77;;
75542;SDS011;64129;53.508;10.476;2022-10-16T16:00:22;3.90;;;0.80;;
75542;SDS011;64129;53.508;10.476;2022-10-16T16:02:49;2.88;;;0.98;;
75542;SDS011;64129;53.508;10.476;2022-10-16T16:05:17;4.63;;;0.82;;
75542;SDS011;64129;53.508;10.476;2022-10-16T16:07:43;4.63;;;0.73;;
75542;SDS011;64129;53.508;10.476;2022-10-16T16:10:09;1.88;;;0.90;;
75542;SDS011;64129;53.508;10.476;2022-10-16T16:12:35;2.92;;;0.95;;
75542;SDS011;64129;53.508;10.476;2022-10-16T16:15:02;3.63;;;1.30;;
75542;SDS011;64129;53.508;10.476;2022-10-16T16:17:30;3.92;;;1.13;;
75542;SDS011;64129;53.508;10.476;2022-10-16T16:19:55;4.28;;;0.93;;
75542;SDS011;64129;53.508;10.476;2022-10-16T16:22:21;2.75;;;0.70;;
75542;SDS011;64129;53.508;10.476;2022-10-16T16:24:46;5.95;;;1.17;;
75542;SDS011;64129;53.508;10.476;2022-10-16T16:27:11;5.38;;;1.45;;
75542;SDS011;64129;53.508;10.476;2022-10-16T16:29:38;4.78;;;1.20;;